TAF Text Data
IDs:
Format:
Raw Decoded Include METAR

Data at: 0126 UTC 24 May 2019

KDVN 240052Z AUTO 30006KT 10SM CLR 21/11 A3009 RMK AO2 SLP185 T02060106


KMLI 240052Z 32004KT 10SM CLR 22/11 A3006 RMK AO2 SLP179 T02170111

KMLI 232320Z 2400/2424 28006KT P6SM SCT120
  FM240800 09008KT 5SM -SHRA BR VCTS OVC035CB
  FM241600 14012KT P6SM OVC025
  FM241900 18012KT P6SM BKN040